KEKO/EKO METAR and TAF weather

Enter ICAO airport designator
Station Type Date Time Source
KEKO METAR 2018/10/22 15:56 UTC NOAA

KEKO 221556Z AUTO 00000KT 10SM BKN044 BKN055 OVC070 10/07 A3011 RMK AO2 RAB16E40 SLP175 P0001 T01000072


Station Type Date Time Source
KEKO Decoded METAR 2018/10/22 15:56 UTC NOAA

ELKO REGIONAL AIRPORT, NV, United States (KEKO) 40-50N 115-47W 1547M
Oct 22, 2018 - 11:56 AM EDT / 2018.10.22 1556 UTC
Wind: Calm:0
Visibility: 10 mile(s):0
Sky conditions: overcast
Precipitation last hour: 0.01 inches
Temperature: 50.0 F (10.0 C)
Dew Point: 45.0 F (7.2 C)
Relative Humidity: 82%
Pressure (altimeter): 30.11 in. Hg (1019 hPa)
ob: KEKO 221556Z AUTO 00000KT 10SM BKN044 BKN055 OVC070 10/07 A3011 RMK AO2 RAB16E40 SLP175 P0001 T01000072
cycle: 16

Station Type Date Time Source
KEKO TAF 2018/10/22 12:39 UTC NOAA

TAF KEKO 221136Z 2212/2312 VRB04KT P6SM -RA SCT025 OVC050
FM221400 VRB06KT P6SM VCSH SCT050 OVC200
FM222200 20006KT P6SM VCTS SCT050 OVC150CB
FM230200 19006KT P6SM FEW050 BKN200


Example: see airport list